createdAt,value
2022-11-12T00:04:10.453Z,33.95
2022-11-12T00:09:22.228Z,31.63
2022-11-12T00:14:37.517Z,33.55
2022-11-12T00:19:49.689Z,34.38
2022-11-12T00:25:05.059Z,29.88
2022-11-12T00:30:18.794Z,27.92
2022-11-12T00:35:34.596Z,25.92
2022-11-12T00:40:48.640Z,33.13
2022-11-12T00:46:02.702Z,42.15
2022-11-12T00:51:18.210Z,37.03
2022-11-12T00:56:35.324Z,40.22
2022-11-12T01:02:02.339Z,36.90
2022-11-12T01:07:19.316Z,43.90
2022-11-12T01:12:34.661Z,39.63
2022-11-12T01:17:55.784Z,39.70
2022-11-12T01:23:08.113Z,38.08
2022-11-12T01:28:20.211Z,30.77
2022-11-12T01:33:33.878Z,36.85
2022-11-12T01:38:48.827Z,33.45
2022-11-12T01:44:16.872Z,35.13
2022-11-12T01:49:40.864Z,36.72
2022-11-12T01:54:59.296Z,34.63
2022-11-12T02:00:14.566Z,36.97
2022-11-12T02:05:29.865Z,34.28
2022-11-12T02:10:44.552Z,35.55
2022-11-12T02:15:58.234Z,38.00
2022-11-12T02:21:16.268Z,34.78
2022-11-12T02:26:34.454Z,40.10
2022-11-12T02:31:54.047Z,33.50
2022-11-12T02:37:06.837Z,34.88
2022-11-12T02:42:23.216Z,52.45
2022-11-12T02:47:35.981Z,57.33
2022-11-12T02:52:48.512Z,44.25
2022-11-12T02:58:13.459Z,35.42
2022-11-12T03:03:54.845Z,32.45
2022-11-12T03:09:18.269Z,38.90
2022-11-12T03:15:19.584Z,26.00
2022-11-12T03:21:40.456Z,32.47
2022-11-12T03:27:16.619Z,30.48
2022-11-12T03:32:36.606Z,32.33
2022-11-12T03:38:21.209Z,34.97
2022-11-12T03:44:00.981Z,36.15
2022-11-12T03:49:44.575Z,43.50
2022-11-12T03:55:19.430Z,34.60
2022-11-12T04:00:33.799Z,32.75
2022-11-12T04:06:09.006Z,33.97
2022-11-12T04:11:25.028Z,30.08
2022-11-12T04:17:15.954Z,40.08
2022-11-12T04:22:40.715Z,28.17
2022-11-12T04:28:04.192Z,25.52
2022-11-12T04:33:19.618Z,33.28
2022-11-12T04:38:56.414Z,27.52
2022-11-12T05:02:14.525Z,28.02
2022-11-12T05:08:02.960Z,28.55
2022-11-12T05:35:30.794Z,33.85
2022-11-12T05:40:49.981Z,44.25
2022-11-12T05:46:01.605Z,35.83
2022-11-12T05:51:14.829Z,38.58
2022-11-12T05:56:27.961Z,40.78
2022-11-12T06:01:44.179Z,46.17
2022-11-12T06:06:56.249Z,39.20
2022-11-12T06:12:09.750Z,37.45
2022-11-12T06:17:21.866Z,29.88
2022-11-12T06:22:34.797Z,28.73
2022-11-12T06:27:48.353Z,28.83
2022-11-12T06:33:02.823Z,31.80
2022-11-12T06:38:14.750Z,31.13
2022-11-12T06:43:30.101Z,35.95
2022-11-12T06:48:44.256Z,37.30
2022-11-12T06:53:57.442Z,33.00
2022-11-12T06:59:12.287Z,30.45
2022-11-12T07:04:25.734Z,32.47
2022-11-12T07:09:37.335Z,27.77
2022-11-12T07:14:50.442Z,29.77
2022-11-12T07:20:03.873Z,38.15
2022-11-12T07:25:17.499Z,33.60
2022-11-12T07:30:37.060Z,36.10
2022-11-12T07:35:50.205Z,32.17
2022-11-12T07:41:06.781Z,35.90
2022-11-12T07:46:23.759Z,33.83
2022-11-12T07:51:35.423Z,42.58
2022-11-12T07:56:47.602Z,38.10
2022-11-12T08:02:01.013Z,35.22
2022-11-12T08:07:12.877Z,37.50
2022-11-12T08:12:24.976Z,38.70
2022-11-12T08:17:41.036Z,39.40
2022-11-12T08:22:52.798Z,36.75
2022-11-12T08:28:05.835Z,40.05
2022-11-12T08:33:22.038Z,40.58
2022-11-12T08:38:34.120Z,41.72
2022-11-12T08:43:49.428Z,37.22
2022-11-12T08:49:02.962Z,38.78
2022-11-12T08:54:15.020Z,38.78
2022-11-12T08:59:29.121Z,39.42
2022-11-12T09:04:42.288Z,38.40
2022-11-12T09:09:54.150Z,41.75
2022-11-12T09:15:36.284Z,45.95
2022-11-12T09:20:40.763Z,43.42
2022-11-12T09:25:55.790Z,40.25
2022-11-12T09:31:09.839Z,42.60
2022-11-12T09:36:26.273Z,39.15
2022-11-12T09:41:41.057Z,40.20
2022-11-12T09:46:56.714Z,43.10
2022-11-12T09:52:18.227Z,44.60
2022-11-12T09:57:30.801Z,38.63
2022-11-12T10:02:50.853Z,36.40
2022-11-12T10:08:30.581Z,40.77
2022-11-12T10:13:52.411Z,39.78
2022-11-12T10:19:27.489Z,37.13
2022-11-12T10:24:43.074Z,30.13
2022-11-12T10:30:00.480Z,29.35
2022-11-12T10:35:13.171Z,31.88
2022-11-12T10:40:37.566Z,41.08
2022-11-12T10:45:51.836Z,31.33
2022-11-12T10:51:05.174Z,36.97
2022-11-12T10:56:29.329Z,33.45
2022-11-12T11:01:45.702Z,32.15
2022-11-12T11:07:08.397Z,30.30
2022-11-12T11:12:29.590Z,32.90
2022-11-12T11:17:41.593Z,30.05
2022-11-12T11:22:57.627Z,31.80
2022-11-12T11:28:23.953Z,29.17
2022-11-12T11:33:49.206Z,31.42
2022-11-12T11:39:06.261Z,26.63
2022-11-12T11:44:30.126Z,25.13
2022-11-12T11:50:04.567Z,23.52
2022-11-12T11:55:38.651Z,24.50
2022-11-12T12:01:01.970Z,28.67
2022-11-12T12:06:23.140Z,25.48
2022-11-12T12:11:44.451Z,24.95
2022-11-12T12:17:08.487Z,28.05
2022-11-12T12:22:25.884Z,22.75
2022-11-12T12:27:41.751Z,22.45
2022-11-12T12:33:00.523Z,23.27
2022-11-12T12:38:16.984Z,27.35
2022-11-12T12:43:35.921Z,26.05
2022-11-12T12:48:51.785Z,26.77
2022-11-12T12:54:03.692Z,25.52
2022-11-12T12:59:24.165Z,23.08
2022-11-12T13:04:55.171Z,26.15
2022-11-12T13:10:35.896Z,23.08
2022-11-12T13:15:53.241Z,20.05
2022-11-12T13:21:14.880Z,24.33
2022-11-12T13:26:54.963Z,22.58
2022-11-12T13:32:45.144Z,23.00
2022-11-12T13:38:06.488Z,27.48
2022-11-12T13:43:35.689Z,31.52
2022-11-12T13:48:51.910Z,26.75
2022-11-12T13:54:30.746Z,28.90
2022-11-12T13:59:47.315Z,27.33
2022-11-12T14:04:59.384Z,28.52
2022-11-12T14:10:33.315Z,25.13
2022-11-12T14:16:06.749Z,25.13
2022-11-12T14:21:25.457Z,28.27
2022-11-12T14:26:41.216Z,26.25
2022-11-12T14:32:07.976Z,29.85
2022-11-12T14:37:39.955Z,33.00
2022-11-12T14:42:56.936Z,36.97
2022-11-12T14:48:11.391Z,38.63
2022-11-12T14:53:28.686Z,35.28
2022-11-12T14:58:43.472Z,42.50
2022-11-12T15:04:21.542Z,32.65
2022-11-12T15:09:37.728Z,39.58
2022-11-12T15:14:53.408Z,39.92
2022-11-12T15:20:15.162Z,43.33
2022-11-12T15:25:30.185Z,38.00
2022-11-12T15:30:43.731Z,35.00
2022-11-12T15:36:07.688Z,36.33
2022-11-12T15:41:28.645Z,35.55
2022-11-12T15:46:42.699Z,40.83
2022-11-12T15:51:54.745Z,38.42
2022-11-12T15:57:14.920Z,41.78
2022-11-12T16:02:41.486Z,41.50
2022-11-12T16:07:53.631Z,48.55
2022-11-12T16:13:08.320Z,49.10
2022-11-12T16:18:23.611Z,51.92
2022-11-12T16:23:40.808Z,57.67
2022-11-12T16:28:52.505Z,95.35
2022-11-12T16:34:10.166Z,77.28
2022-11-12T16:39:25.635Z,81.22
2022-11-12T16:44:46.626Z,72.93
2022-11-12T16:50:01.159Z,75.20
2022-11-12T16:55:13.247Z,90.50
2022-11-12T17:00:29.787Z,113.78
2022-11-12T17:05:51.948Z,129.60
2022-11-12T17:11:10.714Z,128.65
2022-11-12T17:16:23.492Z,141.57
2022-11-12T17:21:37.866Z,119.53
2022-11-12T17:26:49.891Z,113.60
2022-11-12T17:32:04.464Z,118.25
2022-11-12T17:37:17.555Z,119.45
2022-11-12T17:42:43.130Z,111.90
2022-11-12T17:47:55.213Z,114.03
2022-11-12T17:53:08.546Z,93.45
2022-11-12T17:58:20.348Z,83.00
2022-11-12T18:03:41.233Z,70.60
2022-11-12T18:08:56.364Z,88.90
2022-11-12T18:14:08.774Z,90.95
2022-11-12T18:19:20.550Z,108.35
2022-11-12T18:24:34.286Z,130.18
2022-11-12T18:29:47.124Z,122.47
2022-11-12T18:34:58.988Z,89.65
2022-11-12T18:40:12.489Z,43.92
2022-11-12T18:45:24.303Z,55.10
2022-11-12T18:50:36.375Z,50.33
2022-11-12T18:55:49.813Z,50.80
2022-11-12T19:01:03.873Z,65.97
2022-11-12T19:06:16.773Z,50.92
2022-11-12T19:11:30.377Z,47.67
2022-11-12T19:16:44.899Z,53.78
2022-11-12T19:22:00.092Z,44.45
2022-11-12T19:27:13.414Z,47.33
2022-11-12T19:32:24.951Z,53.35
2022-11-12T19:37:36.635Z,60.85
2022-11-12T19:42:52.284Z,61.53
2022-11-12T19:48:04.542Z,53.28
2022-11-12T19:53:16.569Z,51.08
2022-11-12T19:58:31.945Z,55.13
2022-11-12T20:03:44.110Z,58.88
2022-11-12T20:08:59.611Z,68.90
2022-11-12T20:14:12.792Z,58.85
2022-11-12T20:19:24.700Z,56.42
2022-11-12T20:24:36.431Z,54.05
2022-11-12T20:29:52.471Z,68.60
2022-11-12T20:35:10.356Z,65.82
2022-11-12T20:40:25.854Z,71.18
2022-11-12T20:45:39.114Z,104.00
2022-11-12T20:51:16.756Z,93.25
2022-11-12T20:56:26.979Z,84.97
2022-11-12T21:01:40.802Z,67.20
2022-11-12T21:06:53.904Z,84.40
2022-11-12T21:12:06.054Z,59.20
2022-11-12T21:17:19.965Z,61.95
2022-11-12T21:22:33.834Z,53.25
2022-11-12T21:27:45.697Z,51.03
2022-11-12T21:32:58.926Z,50.28
2022-11-12T21:38:10.838Z,53.92
2022-11-12T21:43:22.860Z,50.70
2022-11-12T21:48:36.198Z,50.70
2022-11-12T21:53:48.583Z,50.60
2022-11-12T21:59:01.505Z,50.00
2022-11-12T22:04:18.314Z,57.38
2022-11-12T22:09:32.471Z,52.10
2022-11-12T22:14:44.244Z,52.50
2022-11-12T22:19:57.613Z,52.80
2022-11-12T22:25:14.096Z,53.28
2022-11-12T22:30:25.794Z,51.80
2022-11-12T22:35:39.531Z,61.25
2022-11-12T22:40:51.151Z,86.72
2022-11-12T22:46:07.329Z,72.25
2022-11-12T22:51:22.150Z,67.78
2022-11-12T22:56:34.391Z,63.88
2022-11-12T23:01:46.328Z,62.25
2022-11-12T23:07:01.896Z,72.95
2022-11-12T23:12:16.495Z,215.80
2022-11-12T23:17:33.082Z,173.55
2022-11-12T23:22:46.280Z,109.57
2022-11-12T23:27:57.976Z,100.15
2022-11-12T23:33:10.183Z,112.68
2022-11-12T23:38:23.190Z,89.70
2022-11-12T23:43:35.417Z,85.85
2022-11-12T23:48:47.244Z,111.72
2022-11-12T23:54:00.339Z,159.25
2022-11-12T23:59:11.945Z,70.63
